createdAt,value
2019-05-09T00:00:41.245Z,3.47
2019-05-09T00:03:09.701Z,3.40
2019-05-09T00:05:38.124Z,3.27
2019-05-09T00:08:06.615Z,3.27
2019-05-09T00:10:39.539Z,3.63
2019-05-09T00:13:05.264Z,3.30
2019-05-09T00:15:33.940Z,3.00
2019-05-09T00:18:03.861Z,3.47
2019-05-09T00:20:34.226Z,3.50
2019-05-09T00:23:03.374Z,3.50
2019-05-09T00:25:33.987Z,3.90
2019-05-09T00:28:04.137Z,4.13
2019-05-09T00:30:49.349Z,4.03
2019-05-09T00:33:19.713Z,3.67
2019-05-09T00:35:48.606Z,3.80
2019-05-09T00:38:18.518Z,3.97
2019-05-09T00:40:55.961Z,3.60
2019-05-09T00:43:17.278Z,3.80
2019-05-09T00:46:04.070Z,3.67
2019-05-09T00:48:33.871Z,3.60
2019-05-09T00:51:03.458Z,3.87
2019-05-09T00:53:33.914Z,3.50
2019-05-09T00:56:04.229Z,3.50
2019-05-09T00:58:33.385Z,3.10
2019-05-09T01:01:04.411Z,3.30
2019-05-09T01:03:33.943Z,3.20
2019-05-09T01:06:04.099Z,3.30
2019-05-09T01:08:33.491Z,3.33
2019-05-09T01:11:11.307Z,3.47
2019-05-09T01:13:34.107Z,3.70
2019-05-09T01:16:04.484Z,3.07
2019-05-09T01:18:34.017Z,2.80
2019-05-09T01:21:03.923Z,3.23
2019-05-09T01:23:34.327Z,3.40
2019-05-09T01:26:03.879Z,3.13
2019-05-09T01:28:33.859Z,3.00
2019-05-09T01:31:04.023Z,2.70
2019-05-09T01:33:49.409Z,2.97
2019-05-09T01:36:17.910Z,3.30
2019-05-09T01:38:46.368Z,2.80
2019-05-09T01:41:27.118Z,2.90
2019-05-09T01:43:45.218Z,2.60
2019-05-09T01:46:14.482Z,2.80
2019-05-09T01:48:43.213Z,2.73
2019-05-09T01:51:13.717Z,2.60
2019-05-09T01:53:43.836Z,3.10
2019-05-09T01:56:14.007Z,2.60
2019-05-09T01:58:43.116Z,2.73
2019-05-09T02:01:13.417Z,2.93
2019-05-09T02:03:43.657Z,3.17
2019-05-09T02:06:13.642Z,3.50
2019-05-09T02:08:43.811Z,3.70
2019-05-09T02:11:13.351Z,3.40
2019-05-09T02:13:44.031Z,3.60
2019-05-09T02:16:19.452Z,3.40
2019-05-09T02:18:58.325Z,3.80
2019-05-09T02:21:26.825Z,3.30
2019-05-09T02:23:55.506Z,3.53
2019-05-09T02:26:24.156Z,3.37
2019-05-09T02:28:53.830Z,3.57
2019-05-09T02:31:24.530Z,3.67
2019-05-09T02:33:54.095Z,3.77
2019-05-09T02:36:22.902Z,4.10
2019-05-09T02:38:51.335Z,4.00
2019-05-09T02:41:20.073Z,4.10
2019-05-09T02:43:49.555Z,4.80
2019-05-09T02:46:35.047Z,5.27
2019-05-09T02:49:03.572Z,5.30
2019-05-09T02:51:31.989Z,6.03
2019-05-09T02:54:00.435Z,5.80
2019-05-09T02:56:29.782Z,5.43
2019-05-09T02:59:12.040Z,5.57
2019-05-09T03:01:58.554Z,5.90
2019-05-09T03:04:28.381Z,5.73
2019-05-09T03:06:59.707Z,6.53
2019-05-09T03:09:28.704Z,6.97
2019-05-09T03:11:59.065Z,6.87
2019-05-09T03:14:28.660Z,7.77
2019-05-09T03:16:58.657Z,7.00
2019-05-09T03:19:29.722Z,8.20
2019-05-09T03:22:05.112Z,7.50
2019-05-09T03:24:33.551Z,7.90
2019-05-09T03:27:09.693Z,8.10
2019-05-09T03:29:40.079Z,8.17
2019-05-09T03:32:09.461Z,8.17
2019-05-09T03:34:38.146Z,7.77
2019-05-09T03:37:08.471Z,8.10
2019-05-09T03:39:37.751Z,8.10
2019-05-09T03:42:07.900Z,7.93
2019-05-09T03:44:38.484Z,8.80
2019-05-09T03:47:08.543Z,8.87
2019-05-09T03:49:37.619Z,8.20
2019-05-09T03:52:07.572Z,9.00
2019-05-09T03:54:37.512Z,9.07
2019-05-09T03:57:10.447Z,9.80
2019-05-09T03:59:38.898Z,9.73
2019-05-09T04:02:09.890Z,10.43
2019-05-09T04:04:38.361Z,10.20
2019-05-09T04:07:08.424Z,10.17
2019-05-09T04:09:37.524Z,10.10
2019-05-09T04:12:07.652Z,10.40
2019-05-09T04:14:37.651Z,10.10
2019-05-09T04:17:07.827Z,11.00
2019-05-09T04:19:38.073Z,12.43
2019-05-09T04:22:08.017Z,12.00
2019-05-09T04:24:38.270Z,11.73
2019-05-09T04:27:08.470Z,12.00
2019-05-09T04:29:37.480Z,12.77
2019-05-09T04:32:07.778Z,12.30
2019-05-09T04:34:38.036Z,12.23
2019-05-09T04:37:08.013Z,12.77
2019-05-09T04:39:40.237Z,12.70
2019-05-09T04:42:08.288Z,11.93
2019-05-09T04:44:44.500Z,12.00
2019-05-09T04:47:12.936Z,12.73
2019-05-09T04:49:45.149Z,12.07
2019-05-09T04:52:11.559Z,13.30
2019-05-09T04:54:40.012Z,13.20
2019-05-09T04:57:08.497Z,13.80
2019-05-09T04:59:37.482Z,13.60
2019-05-09T05:02:18.279Z,13.40
2019-05-09T05:04:47.907Z,12.97
2019-05-09T05:07:18.088Z,13.77
2019-05-09T05:09:48.396Z,13.47
2019-05-09T05:12:18.625Z,13.60
2019-05-09T05:14:47.702Z,14.17
2019-05-09T05:17:18.027Z,15.50
2019-05-09T05:19:47.993Z,16.83
2019-05-09T05:22:18.327Z,17.20
2019-05-09T05:24:49.052Z,18.37
2019-05-09T05:27:18.876Z,17.13
2019-05-09T05:29:47.781Z,17.17
2019-05-09T05:32:17.956Z,15.97
2019-05-09T05:35:00.191Z,15.50
2019-05-09T05:37:28.618Z,14.70
2019-05-09T05:39:58.360Z,14.80
2019-05-09T05:42:28.176Z,15.70
2019-05-09T05:44:58.248Z,15.67
2019-05-09T05:47:34.426Z,15.37
2019-05-09T05:50:02.853Z,15.67
2019-05-09T05:52:31.384Z,17.47
2019-05-09T05:54:59.811Z,16.77
2019-05-09T05:57:28.279Z,16.83
2019-05-09T05:59:58.485Z,16.87
2019-05-09T06:02:28.109Z,19.10
2019-05-09T06:04:57.946Z,18.83
2019-05-09T06:07:28.482Z,20.33
2019-05-09T06:09:57.597Z,21.50
2019-05-09T06:12:27.642Z,22.50
2019-05-09T06:14:58.121Z,22.47
2019-05-09T06:17:28.456Z,22.77
2019-05-09T06:19:58.957Z,22.27
2019-05-09T06:22:27.593Z,24.70
2019-05-09T06:24:58.194Z,23.13
2019-05-09T06:27:27.488Z,22.73
2019-05-09T06:29:58.165Z,23.33
2019-05-09T06:32:27.948Z,24.60
2019-05-09T06:34:57.821Z,25.60
2019-05-09T06:37:27.681Z,25.67
2019-05-09T06:39:58.267Z,23.97
2019-05-09T06:42:28.592Z,24.63
2019-05-09T06:44:58.530Z,25.63
2019-05-09T06:47:31.332Z,25.27
2019-05-09T06:50:04.396Z,25.60
2019-05-09T06:52:33.078Z,24.90
2019-05-09T06:55:01.776Z,24.20
2019-05-09T06:57:30.205Z,25.37
2019-05-09T06:59:58.666Z,24.33
2019-05-09T07:02:28.733Z,25.07
2019-05-09T07:05:01.771Z,23.67
2019-05-09T07:07:37.811Z,23.97
2019-05-09T07:10:07.778Z,23.43
2019-05-09T07:12:37.967Z,24.30
2019-05-09T07:15:08.790Z,23.43
2019-05-09T07:17:38.704Z,24.20
2019-05-09T07:20:08.395Z,24.90
2019-05-09T07:22:39.430Z,26.13
2019-05-09T07:25:11.048Z,27.23
2019-05-09T07:27:40.986Z,25.63
2019-05-09T07:30:29.093Z,25.07
2019-05-09T07:33:14.303Z,24.87
2019-05-09T07:35:42.764Z,25.53
2019-05-09T07:38:11.212Z,25.37
2019-05-09T07:40:39.737Z,25.93
2019-05-09T07:43:08.233Z,28.70
2019-05-09T07:45:38.410Z,27.87
2019-05-09T07:48:07.708Z,28.37
2019-05-09T07:50:38.940Z,28.77
2019-05-09T07:53:08.566Z,28.07
2019-05-09T07:55:37.852Z,29.87
2019-05-09T07:58:07.960Z,29.70
2019-05-09T08:00:38.567Z,29.83
2019-05-09T08:03:10.333Z,29.43
2019-05-09T08:05:38.580Z,28.57
2019-05-09T08:08:10.296Z,31.27
2019-05-09T08:10:38.816Z,29.20
2019-05-09T08:13:11.052Z,28.47
2019-05-09T08:15:38.415Z,28.77
2019-05-09T08:18:08.520Z,28.67
2019-05-09T08:20:40.382Z,27.80
2019-05-09T08:23:08.639Z,27.90
2019-05-09T08:25:38.267Z,27.73
2019-05-09T08:28:09.156Z,29.87
2019-05-09T08:30:40.122Z,28.67
2019-05-09T08:33:08.371Z,30.20
2019-05-09T08:35:38.358Z,29.87
2019-05-09T08:38:08.572Z,27.40
2019-05-09T08:40:38.215Z,27.67
2019-05-09T08:43:07.700Z,26.97
2019-05-09T08:45:38.326Z,25.83
2019-05-09T08:48:06.408Z,24.43
2019-05-09T08:50:39.033Z,26.07
2019-05-09T08:53:08.177Z,25.20
2019-05-09T08:55:38.350Z,23.80
2019-05-09T08:58:07.962Z,25.07
2019-05-09T09:00:38.800Z,23.33
2019-05-09T09:03:07.985Z,25.07
2019-05-09T09:05:38.087Z,22.50
2019-05-09T09:08:08.318Z,21.73
2019-05-09T09:10:38.408Z,23.57
2019-05-09T09:13:08.875Z,22.50
2019-05-09T09:16:02.821Z,21.90
2019-05-09T09:18:08.564Z,22.40
2019-05-09T09:20:37.946Z,23.20
2019-05-09T09:23:08.885Z,23.20
2019-05-09T09:25:38.931Z,23.20
2019-05-09T09:28:08.720Z,22.50
2019-05-09T09:30:38.584Z,19.97
2019-05-09T09:33:10.147Z,20.47
2019-05-09T09:35:38.242Z,20.97
2019-05-09T09:38:09.356Z,19.40
2019-05-09T09:40:38.462Z,19.40
2019-05-09T09:43:09.300Z,20.20
2019-05-09T09:45:37.904Z,21.00
2019-05-09T09:48:09.005Z,18.83
2019-05-09T09:50:38.344Z,18.10
2019-05-09T09:53:08.688Z,16.60
2019-05-09T09:55:38.384Z,14.70
2019-05-09T09:58:08.150Z,15.50
2019-05-09T10:00:41.338Z,14.50
2019-05-09T10:03:09.783Z,13.90
2019-05-09T10:05:38.236Z,14.03
2019-05-09T10:08:11.700Z,13.50
2019-05-09T10:10:37.978Z,12.93
2019-05-09T10:13:10.509Z,12.80
2019-05-09T10:15:41.241Z,12.13
2019-05-09T10:18:14.230Z,12.20
2019-05-09T10:20:44.317Z,11.27
2019-05-09T10:23:18.177Z,11.20
2019-05-09T10:25:43.176Z,10.90
2019-05-09T10:28:11.646Z,10.83
2019-05-09T10:30:40.093Z,11.83
2019-05-09T10:33:09.281Z,10.40
2019-05-09T10:35:39.161Z,10.30
2019-05-09T10:38:08.702Z,10.53
2019-05-09T10:40:40.222Z,10.83
2019-05-09T10:43:09.568Z,9.37
2019-05-09T10:45:40.779Z,7.07
2019-05-09T10:48:09.862Z,3.83
2019-05-09T10:50:44.815Z,3.37
2019-05-09T10:53:08.541Z,2.50
2019-05-09T10:55:38.498Z,2.53
2019-05-09T10:58:08.082Z,2.50
2019-05-09T11:00:39.329Z,2.60
2019-05-09T11:03:08.737Z,2.70
2019-05-09T11:05:37.423Z,2.87
2019-05-09T11:08:08.172Z,3.30
2019-05-09T11:10:36.010Z,3.50
2019-05-09T11:13:04.449Z,3.83
2019-05-09T11:15:32.878Z,4.40
2019-05-09T11:18:01.312Z,3.70
2019-05-09T11:20:30.017Z,4.57
2019-05-09T11:22:58.466Z,3.90
2019-05-09T11:25:27.759Z,5.27
2019-05-09T11:28:08.156Z,4.07
2019-05-09T11:30:28.203Z,4.33
2019-05-09T11:32:57.058Z,3.00
2019-05-09T11:35:27.212Z,4.33
2019-05-09T11:37:55.635Z,4.33
2019-05-09T11:40:24.081Z,6.30
2019-05-09T11:42:52.529Z,4.30
2019-05-09T11:45:20.960Z,3.50
2019-05-09T11:47:49.434Z,3.70
2019-05-09T11:50:22.698Z,3.37
2019-05-09T11:52:49.124Z,3.53
2019-05-09T11:55:29.930Z,2.73
2019-05-09T11:57:48.633Z,3.03
2019-05-09T12:00:17.959Z,2.97
2019-05-09T12:02:46.829Z,2.40
2019-05-09T12:05:19.122Z,2.23
2019-05-09T12:07:45.536Z,3.37
2019-05-09T12:10:14.282Z,2.50
2019-05-09T12:12:42.769Z,1.90
2019-05-09T12:15:11.496Z,2.20
2019-05-09T12:17:50.881Z,1.97
2019-05-09T12:20:13.456Z,1.77
2019-05-09T12:22:40.591Z,1.70
2019-05-09T12:25:09.339Z,1.90
2019-05-09T12:27:37.784Z,2.13
2019-05-09T12:30:09.526Z,1.73
2019-05-09T12:32:38.582Z,1.90
2019-05-09T12:35:08.879Z,1.83
2019-05-09T12:37:37.883Z,1.90
2019-05-09T12:40:08.381Z,1.90
2019-05-09T12:42:39.321Z,1.47
2019-05-09T12:45:08.429Z,1.47
2019-05-09T12:47:39.799Z,1.70
2019-05-09T12:50:08.671Z,1.87
2019-05-09T12:52:39.175Z,2.03
2019-05-09T12:55:08.322Z,1.70
2019-05-09T12:57:38.655Z,1.93
2019-05-09T13:00:08.789Z,1.80
2019-05-09T13:02:38.799Z,1.63
2019-05-09T13:05:08.641Z,1.60
2019-05-09T13:07:40.002Z,1.90
2019-05-09T13:10:08.945Z,1.27
2019-05-09T13:12:38.772Z,3.03
2019-05-09T13:15:08.860Z,1.80
2019-05-09T13:17:41.606Z,1.30
2019-05-09T13:20:12.621Z,1.60
2019-05-09T13:22:41.196Z,1.60
2019-05-09T13:25:09.800Z,1.60
2019-05-09T13:27:38.976Z,1.63
2019-05-09T13:30:08.567Z,1.80
2019-05-09T13:32:37.620Z,1.40
2019-05-09T13:35:06.528Z,1.53
2019-05-09T13:37:37.952Z,1.80
2019-05-09T13:40:08.416Z,1.57
2019-05-09T13:42:39.287Z,1.67
2019-05-09T13:45:08.257Z,2.63
2019-05-09T13:47:38.047Z,1.73
2019-05-09T13:50:08.826Z,1.43
2019-05-09T13:52:38.114Z,1.90
2019-05-09T13:55:08.677Z,1.23
2019-05-09T13:57:36.994Z,1.60
2019-05-09T14:00:08.758Z,1.40
2019-05-09T14:02:38.398Z,2.33
2019-05-09T14:05:08.925Z,1.70
2019-05-09T14:07:37.747Z,1.37
2019-05-09T14:10:08.632Z,1.70
2019-05-09T14:12:38.206Z,1.80
2019-05-09T14:15:08.483Z,1.77
2019-05-09T14:17:48.136Z,1.60
2019-05-09T14:20:08.882Z,1.73
2019-05-09T14:22:38.593Z,1.43
2019-05-09T14:25:10.891Z,1.70
2019-05-09T14:27:37.645Z,1.57
2019-05-09T14:30:08.136Z,1.70
2019-05-09T14:32:39.772Z,1.97
2019-05-09T14:35:08.554Z,1.77
2019-05-09T14:37:38.887Z,1.80
2019-05-09T14:40:10.097Z,1.80
2019-05-09T14:42:39.350Z,1.70
2019-05-09T14:45:08.515Z,1.50
2019-05-09T14:47:42.021Z,2.27
2019-05-09T14:50:09.794Z,1.67
2019-05-09T14:52:38.405Z,2.10
2019-05-09T14:55:08.393Z,1.70
2019-05-09T14:57:38.355Z,1.80
2019-05-09T15:00:08.282Z,1.70
2019-05-09T15:02:38.888Z,1.60
2019-05-09T15:05:09.398Z,1.53
2019-05-09T15:07:38.956Z,1.40
2019-05-09T15:10:08.769Z,1.63
2019-05-09T15:12:39.088Z,1.40
2019-05-09T15:15:08.716Z,1.90
2019-05-09T15:17:37.538Z,1.90
2019-05-09T15:20:08.790Z,2.00
2019-05-09T15:22:38.719Z,2.03
2019-05-09T15:25:08.739Z,2.00
2019-05-09T15:27:38.412Z,1.70
2019-05-09T15:30:07.681Z,1.33
2019-05-09T15:32:37.753Z,1.53
2019-05-09T15:35:08.985Z,1.60
2019-05-09T15:37:38.611Z,2.40
2019-05-09T15:40:08.921Z,1.87
2019-05-09T15:42:38.912Z,1.87
2019-05-09T15:45:08.396Z,1.90
2019-05-09T15:47:37.885Z,2.07
2019-05-09T15:50:19.171Z,2.03
2019-05-09T15:52:40.017Z,1.50
2019-05-09T15:55:09.644Z,1.67
2019-05-09T15:57:38.470Z,1.90
2019-05-09T16:00:12.212Z,1.57
2019-05-09T16:02:40.671Z,1.70
2019-05-09T16:05:10.693Z,1.30
2019-05-09T16:07:39.345Z,1.93
2019-05-09T16:10:08.698Z,2.03
2019-05-09T16:12:38.372Z,1.70
2019-05-09T16:15:07.851Z,2.00
2019-05-09T16:17:39.392Z,2.23
2019-05-09T16:20:08.489Z,1.90
2019-05-09T16:22:39.138Z,1.20
2019-05-09T16:25:08.197Z,2.10
2019-05-09T16:27:37.875Z,2.17
2019-05-09T16:30:08.711Z,1.93
2019-05-09T16:32:37.779Z,2.10
2019-05-09T16:35:08.018Z,2.00
2019-05-09T16:37:56.898Z,2.30
2019-05-09T16:40:08.445Z,1.70
2019-05-09T16:42:38.118Z,2.10
2019-05-09T16:45:08.266Z,2.73
2019-05-09T16:47:36.782Z,2.23
2019-05-09T16:50:12.116Z,2.17
2019-05-09T16:52:43.058Z,1.67
2019-05-09T16:55:14.505Z,2.20
2019-05-09T16:57:42.951Z,2.10
2019-05-09T17:00:13.576Z,2.03
2019-05-09T17:02:42.146Z,2.20
2019-05-09T17:05:10.706Z,1.70
2019-05-09T17:07:39.153Z,1.53
2019-05-09T17:10:08.503Z,1.57
2019-05-09T17:12:37.054Z,1.80
2019-05-09T17:15:08.649Z,1.73
2019-05-09T17:17:38.578Z,1.60
2019-05-09T17:20:09.094Z,2.10
2019-05-09T17:23:08.280Z,1.80
2019-05-09T17:25:28.046Z,2.00
2019-05-09T17:27:59.121Z,2.00
2019-05-09T17:30:28.454Z,2.03
2019-05-09T17:32:58.259Z,1.77
2019-05-09T17:35:27.928Z,2.03
2019-05-09T17:37:56.596Z,2.20
2019-05-09T17:40:25.035Z,1.97
2019-05-09T17:42:53.458Z,1.50
2019-05-09T17:45:21.881Z,2.53
2019-05-09T17:47:50.586Z,2.70
2019-05-09T17:50:19.086Z,2.40
2019-05-09T17:52:48.128Z,2.30
2019-05-09T17:55:18.201Z,2.70
2019-05-09T17:57:47.957Z,2.63
2019-05-09T18:00:21.359Z,2.30
2019-05-09T18:02:48.757Z,2.50
2019-05-09T18:05:18.022Z,2.17
2019-05-09T18:07:48.531Z,2.40
2019-05-09T18:10:18.686Z,2.20
2019-05-09T18:12:48.034Z,2.20
2019-05-09T18:15:18.650Z,2.50
2019-05-09T18:17:47.897Z,2.17
2019-05-09T18:20:17.909Z,2.73
2019-05-09T18:22:47.914Z,2.00
2019-05-09T18:25:18.785Z,2.63
2019-05-09T18:27:48.886Z,2.13
2019-05-09T18:30:17.871Z,2.07
2019-05-09T18:32:50.821Z,2.30
2019-05-09T18:35:23.733Z,2.80
2019-05-09T18:37:52.508Z,2.03
2019-05-09T18:40:21.174Z,2.83
2019-05-09T18:42:49.729Z,2.50
2019-05-09T18:45:19.884Z,2.40
2019-05-09T18:47:48.355Z,2.50
2019-05-09T18:50:17.366Z,2.40
2019-05-09T18:52:45.786Z,2.40
2019-05-09T18:55:16.045Z,2.40
2019-05-09T18:57:44.535Z,3.10
2019-05-09T19:00:15.962Z,3.27
2019-05-09T19:02:44.524Z,2.77
2019-05-09T19:05:14.128Z,2.80
2019-05-09T19:07:42.541Z,2.87
2019-05-09T19:10:11.624Z,3.63
2019-05-09T19:12:40.137Z,3.93
2019-05-09T19:15:10.937Z,3.17
2019-05-09T19:17:41.034Z,3.40
2019-05-09T19:20:14.486Z,2.93
2019-05-09T19:22:42.934Z,2.97
2019-05-09T19:25:11.859Z,2.73
2019-05-09T19:27:40.306Z,2.07
2019-05-09T19:30:08.970Z,2.40
2019-05-09T19:32:37.422Z,2.30
2019-05-09T19:35:06.278Z,2.33
2019-05-09T19:37:34.756Z,2.17
2019-05-09T19:40:04.602Z,2.57
2019-05-09T19:42:33.016Z,1.90
2019-05-09T19:45:01.487Z,2.40
2019-05-09T19:47:29.967Z,2.17
2019-05-09T19:49:58.412Z,2.63
2019-05-09T19:52:37.668Z,2.20
2019-05-09T19:54:57.315Z,2.20
2019-05-09T19:57:25.757Z,3.37
2019-05-09T19:59:54.211Z,2.53
2019-05-09T20:02:22.636Z,2.27
2019-05-09T20:04:52.728Z,2.30
2019-05-09T20:07:21.396Z,2.70
2019-05-09T20:09:51.488Z,2.20
2019-05-09T20:12:30.225Z,2.27
2019-05-09T20:14:58.668Z,2.60
2019-05-09T20:17:27.095Z,2.50
2019-05-09T20:19:55.544Z,2.37
2019-05-09T20:22:24.100Z,2.50
2019-05-09T20:24:52.550Z,2.37
2019-05-09T20:27:21.007Z,2.33
2019-05-09T20:29:49.452Z,2.10
2019-05-09T20:32:17.898Z,2.20
2019-05-09T20:34:46.397Z,2.30
2019-05-09T20:37:14.866Z,2.10
2019-05-09T20:39:43.465Z,2.20
2019-05-09T20:42:12.326Z,2.23
2019-05-09T20:44:40.961Z,2.20
2019-05-09T20:47:09.576Z,2.10
2019-05-09T20:49:38.205Z,2.47
2019-05-09T20:52:06.950Z,3.37
2019-05-09T20:54:35.569Z,2.07
2019-05-09T20:57:04.425Z,2.57
2019-05-09T20:59:33.306Z,2.73
2019-05-09T21:02:01.914Z,2.43
2019-05-09T21:04:30.547Z,2.67
2019-05-09T21:06:59.186Z,2.80
2019-05-09T21:09:28.046Z,3.03
2019-05-09T21:11:56.923Z,2.87
2019-05-09T21:14:25.530Z,3.00
2019-05-09T21:16:54.170Z,3.00
2019-05-09T21:19:22.777Z,3.27
2019-05-09T21:21:51.403Z,3.47
2019-05-09T21:24:20.271Z,2.80
2019-05-09T21:26:48.913Z,2.87
2019-05-09T21:29:17.672Z,3.23
2019-05-09T21:31:46.336Z,3.30
2019-05-09T21:34:14.972Z,3.07
2019-05-09T21:36:43.692Z,3.00
2019-05-09T21:39:12.132Z,3.33
2019-05-09T21:41:40.562Z,3.80
2019-05-09T21:44:09.271Z,3.43
2019-05-09T21:46:37.699Z,3.67
2019-05-09T21:49:06.165Z,3.20
2019-05-09T21:51:34.655Z,4.10
2019-05-09T21:54:03.115Z,3.40
2019-05-09T21:56:31.538Z,3.40
2019-05-09T21:58:59.966Z,3.93
2019-05-09T22:01:28.477Z,3.90
2019-05-09T22:03:56.897Z,3.60
2019-05-09T22:06:25.350Z,4.10
2019-05-09T22:08:54.037Z,4.13
2019-05-09T22:11:22.541Z,4.10
2019-05-09T22:13:51.007Z,3.90
2019-05-09T22:16:19.700Z,3.50
2019-05-09T22:18:48.144Z,3.97
2019-05-09T22:21:22.592Z,3.73
2019-05-09T22:23:56.362Z,3.70
2019-05-09T22:26:21.565Z,4.83
2019-05-09T22:28:50.036Z,4.40
2019-05-09T22:31:18.470Z,4.20
2019-05-09T22:33:46.942Z,4.50
2019-05-09T22:36:15.365Z,4.40
2019-05-09T22:38:43.807Z,4.33
2019-05-09T22:41:12.322Z,4.80
2019-05-09T22:43:40.753Z,4.60
2019-05-09T22:46:09.194Z,5.30
2019-05-09T22:48:37.649Z,5.30
2019-05-09T22:51:06.320Z,4.90
2019-05-09T22:53:34.823Z,5.33
2019-05-09T22:56:03.272Z,4.87
2019-05-09T22:58:31.691Z,5.17
2019-05-09T23:01:00.380Z,4.40
2019-05-09T23:03:28.810Z,4.60
2019-05-09T23:05:57.252Z,4.20
2019-05-09T23:08:25.769Z,3.90
2019-05-09T23:10:54.288Z,4.63
2019-05-09T23:13:22.996Z,4.67
2019-05-09T23:15:51.437Z,4.17
2019-05-09T23:18:19.853Z,4.23
2019-05-09T23:20:49.931Z,4.60
2019-05-09T23:23:34.833Z,4.47
2019-05-09T23:26:03.344Z,4.50
2019-05-09T23:28:32.081Z,4.30
2019-05-09T23:31:02.169Z,4.47
2019-05-09T23:33:32.249Z,4.73
2019-05-09T23:36:00.947Z,4.83
2019-05-09T23:38:29.448Z,4.10
2019-05-09T23:40:57.880Z,4.67
2019-05-09T23:43:26.547Z,4.60
2019-05-09T23:45:55.020Z,4.20
2019-05-09T23:48:23.528Z,4.43
2019-05-09T23:50:52.000Z,4.30
2019-05-09T23:53:25.410Z,4.03
2019-05-09T23:56:11.869Z,4.33
2019-05-09T23:58:58.473Z,4.83
